Highlands Peak, California Weather observations

Data are for observation ending at time listed.
 Day   Time    Ave.   Ave.  Ave.  Vector   Max.   Stn.    Total    Solar   Ave.  
  of    of     Air    Rel.  Wind   Wind    Wind   Baro.  Precip.   Rad.    Soil  
Year   Day     Temp.  Hum.  Speed  Dir.    Gust   Pres.                    Temp. 
2014   (PST)    F      %     mph   deg.    mph     mb.     in.     W/m2     F   
------------------------------------------------------------------------------
 243    0:00   77.5    15    4.1   328      6.9   927.9    0.00       0    86.2
 243    0:10   76.9    15    4.6    46      9.2   928.0    0.00       0    86.0
 243    0:20   77.0    15    5.9    56     12.1   928.0    0.00       0    85.6
 243    0:30   77.0    16    4.0   266     11.3   927.9    0.00       0    85.2
 243    0:40   76.6    17    2.2   257      6.6   928.0    0.00       0    85.1
 243    0:50   76.6    17    3.7   257      9.3   928.0    0.00       0    85.2
 243    1:00   76.8    17    4.4   284      8.7   928.0    0.00       0    85.1
 243    1:10   76.4    18    6.1   294     10.5   928.0    0.00       0    84.9
 243    1:20   76.6    17    6.3   298     15.1   927.9    0.00       0    84.7
 243    1:30   76.7    17    5.5   294     11.5   927.9    0.00       0    84.4
 243    1:40   76.4    18    5.8   295     11.5   927.9    0.00       0    84.2
 243    1:50   76.2    18    5.9   297     11.8   927.9    0.00       0    84.0
 243    2:00   76.8    17    7.6   310     12.4   928.0    0.00       0    83.9
 243    2:10   77.1    16    6.8   331     10.8   927.9    0.00       0    83.8
 243    2:20   77.4    16    9.0   327     14.2   927.9    0.00       0    83.4
 243    2:30   77.6    16    8.3   314     13.2   927.9    0.00       0    83.2
 243    2:40   77.2    16    7.5   325     13.4   927.9    0.00       0    83.2
 243    2:50   77.3    16    8.1   326     14.4   927.8    0.00       0    82.9
 243    3:00   77.5    16    7.4   317     15.2   927.8    0.00       0    82.7
 243    3:10   77.1    16    6.9   317     12.2   927.7    0.00       0    82.5
 243    3:20   76.8    16    7.1   301     12.8   927.7    0.00       0    82.3
 243    3:30   76.7    15    9.3   313     14.1   927.7    0.00       0    82.2
 243    3:40   76.8    15    9.5   317     14.9   927.6    0.00       0    82.1
 243    3:50   77.2    15    9.1   320     16.9   927.6    0.00       0    82.0
 243    4:00   77.2    14    9.7   318     18.3   927.6    0.00       0    81.8
 243    4:10   77.2    14    9.9   318     17.8   927.6    0.00       0    81.8
 243    4:20   77.0    14    9.2   316     14.2   927.6    0.00       0    81.7
 243    4:30   76.9    14   10.2   317     16.6   927.6    0.00       0    81.6
 243    4:40   76.9    15   10.1   324     22.1   927.6    0.00       0    81.4
 243    4:50   77.3    15    9.8   326     19.1   927.6    0.00       0    81.3
 243    5:00   77.4    16    9.6   324     15.9   927.6    0.00       0    81.1
 243    5:10   77.6    16   10.9   336     20.2   927.7    0.00       0    80.9
 243    5:20   77.6    16    9.9   329     19.4   927.6    0.00       0    80.7
 243    5:30   77.3    16    8.1   326     16.9   927.6    0.00       1    80.6
 243    5:40   77.3    16    7.9   324     15.7   927.7    0.00       3    80.4
 243    5:50   77.1    16    7.9   320     17.7   927.8    0.00       7    80.2
 243    6:00   76.9    16    8.3   315     12.5   927.8    0.00      10    80.2
 243    6:10   76.9    16    8.2   317     16.1   927.9    0.00      13    80.0
 243    6:20   76.7    16    7.0   316     14.0   927.9    0.00      15    80.0
 243    6:30   76.7    16    7.5   314     13.8   927.9    0.00      45    80.0
 243    6:40   77.0    15    6.9   315     12.8   928.0    0.00     192    80.0
 243    6:50   77.4    14    8.3   314     14.4   928.0    0.00     235    79.9
 243    7:00   77.5    14    6.8   319     11.4   928.0    0.00     274    79.9
 243    7:10   77.7    13    7.3   319     13.3   928.0    0.00     313    79.8
 243    7:20   77.0    13    6.5   310     11.5   928.0    0.00     352    79.8
 243    7:30   75.9    14    5.6   293      9.6   928.1    0.00     391    79.9
 243    7:40   75.1    15    3.3   272      5.1   928.2    0.00     429    79.9
 243    7:50   75.7    15    2.4   272      4.5   928.2    0.00     468    79.9
 243    8:00   76.4    14    2.6   282      5.4   928.3    0.00     507    79.8
 243    8:10   76.5    14    3.6   280      4.8   928.3    0.00     545    79.9
 243    8:20   76.6    15    4.1   278      6.6   928.3    0.00     581    79.9
 243    8:30   76.6    15    4.2   267      5.8   928.5    0.00     619    80.0
 243    8:40   76.6    14    3.4   279      5.4   928.6    0.00     655    80.0
 243    8:50   76.8    13    3.2   277      5.9   928.6    0.00     690    80.0
 243    9:00   77.4    13    3.1   275      5.0   928.6    0.00     726    80.1
 243    9:10   77.9    12    4.1   270      6.7   928.6    0.00     758    80.2
 243    9:20   78.1    12    5.3   275      8.3   928.6    0.00     787    80.3
 243    9:30   78.2    12    5.0   269      7.1   928.6    0.00     813    80.5
 243    9:40   78.2    11    4.2   270      7.5   928.7    0.00     837    80.7
 243    9:50   78.6    11    5.0   265      8.0   928.7    0.00     860    80.8
 243   10:00   78.9    10    5.1   270      8.5   928.8    0.00     881    81.0
 243   10:10   79.6    10    5.3   254      7.7   928.9    0.00     902    81.2
 243   10:20   80.3    10    6.2   263      9.1   928.9    0.00     921    81.4
 243   10:30   80.2    10    6.6   272     10.2   928.9    0.00     938    81.6
 243   10:40   79.7    11    4.8   255      8.6   928.9    0.00     952    81.8
 243   10:50   79.8    11    5.3   263     10.4   928.8    0.00     964    82.0
 243   11:00   79.2    11    8.0   284     13.0   928.8    0.00     975    82.2
 243   11:10   78.6    12    4.5   272      8.3   928.8    0.00     985    82.4
 243   11:20   79.2    11    6.9   279     11.8   928.8    0.00     992    82.7
 243   11:30   79.7    12    6.8   280     11.9   928.7    0.00     996    83.0
 243   11:40   80.2    13    6.3   272     10.6   928.7    0.00     997    83.3
 243   11:50   80.4    14    5.2   257      8.8   928.6    0.00     998    83.5
 243   12:00   80.5    15    4.3   258      8.0   928.6    0.00     997    83.8
 243   12:10   80.2    16    5.0   277      9.1   928.6    0.00     996    84.0
 243   12:20   80.4    17    5.3   275     10.2   928.5    0.00     993    84.3
 243   12:30   80.9    18    4.7   272      8.3   928.5    0.00     989    84.7
 243   12:40   80.1    17    6.1   263     11.8   928.4    0.00     982    85.0
 243   12:50   80.3    19    6.2   261     10.7   928.3    0.00     973    85.4
 243   13:00   80.0    20    5.6   269      8.5   928.2    0.00     964    85.7
 243   13:10   79.2    21    6.5   285     14.3   928.2    0.00     953    86.2
 243   13:20   79.8    22    5.3   260      7.8   928.1    0.00     938    86.6
 243   13:30   80.7    22    5.9   276     10.2   927.9    0.00     923    87.0
 243   13:40   80.5    23    6.3   270      9.3   927.8    0.00     906    87.4
 243   13:50   81.6    22    5.9   268     10.0   927.7    0.00     887    87.8
 243   14:00   81.5    23    6.5   281     11.3   927.7    0.00     865    88.2
 243   14:10   80.2    25    5.2   260      9.9   927.7    0.00     819    88.6
 243   14:20   80.5    25    4.6   270      7.6   927.5    0.00     820    89.0
 243   14:30   80.7    25    4.7   262      9.0   927.4    0.00     796    89.4
 243   14:40  99999.0   99999  99999.0   99999    99999.0   99999.0   99999.00   99999    99999.0
 243   14:50   80.7    25    6.4   261     10.9   927.2    0.00     744    90.4
 243   15:00   81.8    24    5.8   246     10.6   927.2    0.00     718    90.8
 243   15:10   82.2    23    5.1   239      9.1   927.1    0.00     688    91.0
 243   15:20   82.7    23    5.6   257      9.8   927.1    0.00     658    91.3
 243   15:30   81.9    24    5.8   247      9.9   927.0    0.00     625    91.6
 243   15:40   81.0    24    5.0   251      8.9   926.9    0.00     591    91.9
 243   15:50   82.0    24    5.6   255      9.0   926.9    0.00     557    92.2
 243   16:00   82.2    24    4.0   262      8.5   926.7    0.00     523    92.4
 243   16:10   82.3    24    4.9   258      8.8   926.7    0.00     488    92.6
 243   16:20   81.5    25    4.5   256      6.9   926.6    0.00     451    92.9
 243   16:30   82.7    26    2.3   239      5.0   926.5    0.00     414    93.0
 243   16:40   83.7    26    1.2   222      4.7   926.4    0.00     377    93.1
 243   16:50   82.9    27    2.5   256      5.0   926.4    0.00     340    93.3
 243   17:00   83.6    27    3.1   278      4.7   926.4    0.00     303    93.4
 243   17:10   82.8    28    2.9   260      4.8   926.3    0.00     265    93.5
 243   17:20   83.0    26    2.3   268      5.3   926.3    0.00     229    93.5
 243   17:30   83.5    24    2.5   287      4.6   926.3    0.00     194    93.6
 243   17:40   82.9    24    3.8   284      6.2   926.1    0.00     160    93.6
 243   17:50   82.5    25    2.5   277      4.7   926.1    0.00     129    93.6
 243   18:00   82.3    24    2.8   286      5.5   926.0    0.00     101    93.6
 243   18:10   81.2    25    3.1   278      4.7   925.9    0.00      74    93.6
 243   18:20   80.8    26    2.3   284      4.1   925.9    0.00      50    93.5
 243   18:30   80.0    26    1.6   266      3.3   925.9    0.00      29    93.5
 243   18:40   78.8    27    0.6   294      1.6   925.9    0.00      12    93.4
 243   18:50   77.9    28    1.8    97      3.1   926.0    0.00       2    93.2
 243   19:00   77.2    29    3.6    85      5.7   926.0    0.00       1    92.9
 243   19:10   77.6    26    4.6    67      5.8   926.1    0.00       0    92.9
 243   19:20   78.5    25    5.4    54      6.3   926.0    0.00       0    92.8
 243   19:30   78.6    22    6.3    76      9.3   926.1    0.00       0    92.5
 243   19:40   78.5    20    6.7    80      8.6   926.1    0.00       0    92.3
 243   19:50   78.7    18    6.2    68      7.7   926.1    0.00       0    92.0
 243   20:00   79.4    18    5.8    77      7.7   926.2    0.00       0    91.7
 243   20:10   78.8    18    6.3    89      7.8   926.2    0.00       0    91.2
 243   20:20   78.6    18    5.7    84      8.2   926.2    0.00       0    90.9
 243   20:30   79.1    21    2.9   127      4.4   926.2    0.00       0    90.6
 243   20:40   78.9    25    3.5   143      3.9   926.2    0.00       0    90.1
 243   20:50   78.7    25    3.7   145      4.0   926.2    0.00       0    89.7
 243   21:00   78.7    25    3.2   140      3.7   926.2    0.00       0    89.3
 243   21:10   78.8    23    2.3   126      3.4   926.2    0.00       0    89.1
 243   21:20   79.1    21    1.8   120      3.8   926.3    0.00       0    89.0
 243   21:30   78.5    18    4.7    87      6.4   926.2    0.00       0    88.8
 243   21:40   78.5    18    4.4    98      5.8   926.3    0.00       0    88.3
 243   21:50   79.5    18    2.8    94      4.0   926.3    0.00       0    88.3
 243   22:00   80.3    18    1.9   120      3.1   926.3    0.00       0    88.1
 243   22:10   80.6    17    2.1   100      5.5   926.3    0.00       0    88.0
 243   22:20   80.0    16    2.8    86      4.5   926.4    0.00       0    87.9
 243   22:30   80.1    16    4.6    81      7.6   926.3    0.00       0    87.7
 243   22:40   80.0    15    3.2    69      6.6   926.3    0.00       0    87.5

Return to Highlands Peak graphs page.


Western Regional Climate Center,wrcc@dri.edu